Time;durP1;ratioP1;P1;durP2;ratioP2;P2;SDS_P1;SDS_P2;PMS_P1;PMS_P2;Temp;Humidity;BMP_temperature;BMP_pressure;BME280_temperature;BME280_humidity;BME280_pressure;Samples;Min_cycle;Max_cycle;Signal;HPM_P1;HPM_P2
2021/09/04 00:00:15;;;;;;;11.48;9.23;;;20.90;66.80;;;;;;4976380;28;20042;-70
2021/09/04 00:02:41;;;;;;;11.35;8.65;;;20.90;66.50;;;;;;4990392;28;20026;-71
2021/09/04 00:05:07;;;;;;;12.02;8.32;;;20.80;66.80;;;;;;4988418;28;20034;-70
2021/09/04 00:07:33;;;;;;;11.68;8.60;;;20.80;66.40;;;;;;4993542;28;20566;-71
2021/09/04 00:09:59;;;;;;;12.32;9.00;;;20.80;66.30;;;;;;4991988;28;20034;-71
2021/09/04 00:12:26;;;;;;;11.93;9.43;;;20.80;66.80;;;;;;4991144;28;20049;-71
2021/09/04 00:14:55;;;;;;;11.48;8.65;;;20.70;67.20;;;;;;4991373;28;20033;-71
2021/09/04 00:17:21;;;;;;;13.13;8.52;;;20.80;66.90;;;;;;4991502;28;20045;-71
2021/09/04 00:19:47;;;;;;;11.18;8.48;;;20.70;66.70;;;;;;4991823;28;20047;-70
2021/09/04 00:22:13;;;;;;;10.95;8.70;;;20.70;67.20;;;;;;4971804;28;20061;-71
2021/09/04 00:24:39;;;;;;;11.98;8.73;;;20.70;67.10;;;;;;4988977;28;20093;-71
2021/09/04 00:27:06;;;;;;;11.30;8.25;;;20.60;67.30;;;;;;4990908;28;20382;-71
2021/09/04 00:29:33;;;;;;;11.07;9.00;;;20.60;67.60;;;;;;4975281;28;20034;-70
2021/09/04 00:31:59;;;;;;;13.70;8.32;;;20.60;67.30;;;;;;4990940;28;20418;-70
2021/09/04 00:34:24;;;;;;;11.00;8.63;;;20.60;67.60;;;;;;4993857;28;20494;-71
2021/09/04 00:36:50;;;;;;;11.85;9.10;;;20.60;67.40;;;;;;4991066;28;20057;-70
2021/09/04 00:39:16;;;;;;;11.73;8.70;;;20.60;67.70;;;;;;4988241;28;20050;-71
2021/09/04 00:41:42;;;;;;;10.60;9.00;;;20.50;67.60;;;;;;4985577;28;20475;-71
2021/09/04 00:44:14;;;;;;;12.52;8.98;;;20.50;67.60;;;;;;4991688;28;20039;-71
2021/09/04 00:46:39;;;;;;;12.55;8.55;;;20.40;67.60;;;;;;4992741;28;20529;-70
2021/09/04 00:49:05;;;;;;;10.77;8.52;;;20.40;68.10;;;;;;4991354;28;20038;-70
2021/09/04 00:51:31;;;;;;;13.55;8.60;;;20.40;68.20;;;;;;4990464;28;20027;-70
2021/09/04 00:53:56;;;;;;;11.40;8.98;;;20.30;68.00;;;;;;4992214;28;20141;-70
2021/09/04 00:56:22;;;;;;;11.52;8.77;;;20.30;67.90;;;;;;4990471;28;20026;-70
2021/09/04 00:58:48;;;;;;;11.52;9.13;;;20.30;68.10;;;;;;4974431;28;20038;-70
2021/09/04 01:01:13;;;;;;;11.02;8.35;;;20.30;68.60;;;;;;4992384;28;20423;-70
2021/09/04 01:03:39;;;;;;;13.45;8.88;;;20.30;68.10;;;;;;4989884;28;20034;-70
2021/09/04 01:06:05;;;;;;;12.18;8.45;;;20.30;68.60;;;;;;4990128;28;20026;-70
2021/09/04 01:08:30;;;;;;;12.57;8.88;;;20.20;68.50;;;;;;4991064;28;20089;-70
2021/09/04 01:10:56;;;;;;;11.25;9.30;;;20.30;68.70;;;;;;4990717;28;20041;-70
2021/09/04 01:13:22;;;;;;;13.82;9.75;;;20.20;68.00;;;;;;4993191;28;20030;-70
2021/09/04 01:15:49;;;;;;;11.68;8.27;;;20.20;68.40;;;;;;4990263;28;20108;-70
2021/09/04 01:18:15;;;;;;;12.60;8.93;;;20.20;68.70;;;;;;4989887;28;20023;-70
2021/09/04 01:20:41;;;;;;;13.23;9.80;;;20.20;68.70;;;;;;4988880;28;20045;-70
2021/09/04 01:23:07;;;;;;;10.48;9.10;;;20.10;68.70;;;;;;4991881;28;20030;-71
2021/09/04 01:25:34;;;;;;;13.52;9.15;;;20.10;69.10;;;;;;4992834;28;20034;-70
2021/09/04 01:28:02;;;;;;;11.27;8.85;;;20.10;69.20;;;;;;4991429;28;20018;-70
2021/09/04 01:30:28;;;;;;;13.30;9.25;;;20.00;69.20;;;;;;4991879;28;20083;-71
2021/09/04 01:32:54;;;;;;;11.57;8.68;;;20.00;69.20;;;;;;4989033;28;20045;-70
2021/09/04 01:35:23;;;;;;;11.77;8.80;;;20.00;69.30;;;;;;4990118;28;20030;-70
2021/09/04 01:37:49;;;;;;;13.23;9.13;;;20.00;69.20;;;;;;4990043;28;20041;-70
2021/09/04 01:40:16;;;;;;;12.02;9.00;;;19.90;69.00;;;;;;4991343;28;20038;-70
2021/09/04 01:42:43;;;;;;;15.45;9.32;;;20.00;69.20;;;;;;4989718;28;20015;-70
2021/09/04 01:45:09;;;;;;;13.13;9.50;;;19.90;69.50;;;;;;4989395;28;20033;-70
2021/09/04 01:47:35;;;;;;;14.77;9.40;;;19.80;69.30;;;;;;4989425;28;20045;-70
2021/09/04 01:50:02;;;;;;;11.45;9.20;;;19.90;69.80;;;;;;4989754;28;20022;-70
2021/09/04 01:52:28;;;;;;;12.40;9.82;;;19.90;70.00;;;;;;4992424;28;20096;-70
2021/09/04 01:54:53;;;;;;;12.00;9.80;;;19.80;69.50;;;;;;4990044;28;20057;-70
2021/09/04 01:57:19;;;;;;;11.13;8.77;;;19.80;69.80;;;;;;4989580;28;20487;-70
2021/09/04 01:59:46;;;;;;;12.60;9.02;;;19.80;69.60;;;;;;4989363;28;20026;-70
2021/09/04 02:02:14;;;;;;;11.60;9.48;;;19.80;69.80;;;;;;4988113;28;20030;-70
2021/09/04 02:04:39;;;;;;;12.73;10.10;;;19.80;69.90;;;;;;4991600;28;20019;-70
2021/09/04 02:07:05;;;;;;;11.40;9.23;;;19.80;70.10;;;;;;4990531;28;20133;-71
2021/09/04 02:09:31;;;;;;;12.75;9.90;;;19.80;70.40;;;;;;4989007;28;20566;-70
2021/09/04 02:11:57;;;;;;;12.40;9.95;;;19.80;70.30;;;;;;4989269;28;20069;-70
2021/09/04 02:14:23;;;;;;;13.13;9.73;;;19.80;69.70;;;;;;4991136;28;20070;-70
2021/09/04 02:16:49;;;;;;;11.40;8.90;;;19.80;69.80;;;;;;4990093;28;20046;-70
2021/09/04 02:19:14;;;;;;;12.65;9.00;;;19.90;69.60;;;;;;4993671;28;20503;-70
2021/09/04 02:21:40;;;;;;;13.75;9.88;;;19.80;69.60;;;;;;4992706;28;20451;-71
2021/09/04 02:24:07;;;;;;;13.88;9.70;;;19.90;70.40;;;;;;4993146;28;20049;-70
2021/09/04 02:26:33;;;;;;;12.77;9.50;;;19.80;69.80;;;;;;4993066;28;20479;-70
2021/09/04 02:28:58;;;;;;;14.30;9.32;;;19.80;69.70;;;;;;4993104;28;20023;-70
2021/09/04 02:31:24;;;;;;;13.73;9.43;;;19.80;69.80;;;;;;4995864;28;20055;-70
2021/09/04 02:33:55;;;;;;;12.32;9.25;;;19.80;70.00;;;;;;4996776;28;20048;-70
2021/09/04 02:36:23;;;;;;;15.30;9.57;;;19.80;69.90;;;;;;4992774;28;20023;-70
2021/09/04 02:38:49;;;;;;;11.32;8.63;;;19.80;69.90;;;;;;4993034;28;20037;-70
2021/09/04 02:41:17;;;;;;;12.68;8.80;;;19.70;69.70;;;;;;4992826;28;20038;-70
2021/09/04 02:43:43;;;;;;;12.70;9.45;;;19.70;69.70;;;;;;4994517;28;20026;-70
2021/09/04 02:46:09;;;;;;;12.93;10.15;;;19.70;69.90;;;;;;4994535;28;20069;-71
2021/09/04 02:48:35;;;;;;;14.00;9.65;;;19.70;70.10;;;;;;4992761;28;20044;-71
2021/09/04 02:51:01;;;;;;;12.65;9.30;;;19.60;70.20;;;;;;4992532;28;20387;-71
2021/09/04 02:53:27;;;;;;;13.57;10.40;;;19.60;70.00;;;;;;4992553;28;20034;-70
2021/09/04 02:55:53;;;;;;;12.65;9.48;;;19.60;70.90;;;;;;4993070;28;20568;-70
2021/09/04 02:58:19;;;;;;;13.85;9.85;;;19.60;70.20;;;;;;4995375;28;20018;-70
2021/09/04 03:00:45;;;;;;;11.73;8.90;;;19.60;70.10;;;;;;4992570;28;20061;-70
2021/09/04 03:03:10;;;;;;;12.57;9.10;;;19.50;70.30;;;;;;4992562;28;20026;-70
2021/09/04 03:05:36;;;;;;;12.10;9.63;;;19.50;70.50;;;;;;4992577;28;20105;-70
2021/09/04 03:08:02;;;;;;;11.38;9.25;;;19.40;70.20;;;;;;4975783;28;20471;-69
2021/09/04 03:10:29;;;;;;;14.02;9.95;;;19.50;70.40;;;;;;4994760;28;20026;-71
2021/09/04 03:12:55;;;;;;;12.05;9.52;;;19.40;70.70;;;;;;4992296;28;20019;-71
2021/09/04 03:15:21;;;;;;;12.30;9.77;;;19.40;70.80;;;;;;4994470;28;20387;-71
2021/09/04 03:17:47;;;;;;;11.52;8.73;;;19.40;70.80;;;;;;4992293;28;20049;-71
2021/09/04 03:20:13;;;;;;;12.02;9.55;;;19.30;70.70;;;;;;4992332;28;20034;-71
2021/09/04 03:22:39;;;;;;;12.27;9.10;;;19.30;70.80;;;;;;4994628;28;20102;-71
2021/09/04 03:25:05;;;;;;;13.05;9.73;;;19.30;70.90;;;;;;4993034;28;20117;-71
2021/09/04 03:27:31;;;;;;;11.35;9.02;;;19.30;71.00;;;;;;4976387;28;20483;-71
2021/09/04 03:29:57;;;;;;;12.38;9.60;;;19.30;71.00;;;;;;4992162;28;20034;-70
2021/09/04 03:32:23;;;;;;;15.20;10.15;;;19.20;70.70;;;;;;4992029;28;20419;-71
2021/09/04 03:34:50;;;;;;;13.27;10.05;;;19.20;71.10;;;;;;4992985;28;20526;-70
2021/09/04 03:37:16;;;;;;;13.43;10.15;;;19.30;71.40;;;;;;4993577;28;20461;-71
2021/09/04 03:39:41;;;;;;;13.20;9.73;;;19.30;71.70;;;;;;4991012;28;20117;-71
2021/09/04 03:42:07;;;;;;;14.57;10.23;;;19.30;71.20;;;;;;4968299;28;20034;-71
2021/09/04 03:44:33;;;;;;;14.80;9.93;;;19.20;71.50;;;;;;4977447;28;20029;-71
2021/09/04 03:46:59;;;;;;;13.48;9.75;;;19.20;71.40;;;;;;4991760;28;20406;-71
2021/09/04 03:49:24;;;;;;;12.27;9.60;;;19.20;71.10;;;;;;4977560;28;20117;-71
2021/09/04 03:51:50;;;;;;;13.07;9.55;;;19.20;71.50;;;;;;4993249;28;20513;-70
2021/09/04 03:54:16;;;;;;;14.68;9.98;;;19.20;71.50;;;;;;4991845;28;20026;-70
2021/09/04 03:56:42;;;;;;;12.45;9.40;;;19.10;71.70;;;;;;4990722;28;20487;-70
2021/09/04 03:59:07;;;;;;;12.90;10.40;;;19.10;71.50;;;;;;4991729;28;20034;-70
2021/09/04 04:01:33;;;;;;;15.30;10.32;;;19.10;71.70;;;;;;4992983;28;20034;-70
2021/09/04 04:03:59;;;;;;;12.48;9.25;;;19.10;71.70;;;;;;4991230;28;20038;-70
2021/09/04 04:06:24;;;;;;;12.73;9.05;;;19.00;71.90;;;;;;4991613;28;20054;-70
2021/09/04 04:08:50;;;;;;;12.57;9.45;;;19.10;71.90;;;;;;4990869;28;20027;-70
2021/09/04 04:11:16;;;;;;;15.38;10.02;;;19.10;71.70;;;;;;4990516;28;20097;-71
2021/09/04 04:13:41;;;;;;;12.13;9.07;;;19.20;71.80;;;;;;4992366;28;20105;-71
2021/09/04 04:16:08;;;;;;;14.13;9.32;;;19.20;71.40;;;;;;4991909;28;20117;-71
2021/09/04 04:18:34;;;;;;;11.63;8.48;;;19.20;71.30;;;;;;4990914;28;20414;-71
2021/09/04 04:21:00;;;;;;;12.25;9.63;;;19.20;71.20;;;;;;4991268;28;20437;-71
2021/09/04 04:23:26;;;;;;;12.57;9.30;;;19.10;71.20;;;;;;4991216;28;20014;-71
2021/09/04 04:25:52;;;;;;;13.25;9.43;;;19.10;71.40;;;;;;4991788;28;20040;-71
2021/09/04 04:28:18;;;;;;;12.38;8.82;;;19.10;71.60;;;;;;4994013;28;20022;-71
2021/09/04 04:30:45;;;;;;;13.00;9.80;;;19.10;71.50;;;;;;4990833;28;20058;-71
2021/09/04 04:33:10;;;;;;;12.48;8.90;;;19.00;71.90;;;;;;4979021;28;20107;-71
2021/09/04 04:35:36;;;;;;;13.23;9.77;;;19.00;71.60;;;;;;4992711;28;20127;-71
2021/09/04 04:38:02;;;;;;;13.02;9.40;;;19.00;71.50;;;;;;4990443;28;20047;-71
2021/09/04 04:40:28;;;;;;;13.35;9.70;;;18.90;71.70;;;;;;4993350;28;20026;-71
2021/09/04 04:42:54;;;;;;;12.82;9.77;;;18.90;71.90;;;;;;4973017;28;20069;-71
2021/09/04 04:45:20;;;;;;;12.35;9.50;;;18.90;72.00;;;;;;4990692;28;20085;-71
2021/09/04 04:47:45;;;;;;;13.18;9.70;;;18.90;72.10;;;;;;4989930;28;20042;-71
2021/09/04 04:50:11;;;;;;;11.25;9.00;;;18.80;72.30;;;;;;4983149;28;20123;-71
2021/09/04 04:52:38;;;;;;;11.23;8.25;;;18.90;72.10;;;;;;4992900;28;20073;-71
2021/09/04 04:55:04;;;;;;;12.55;9.38;;;18.90;72.00;;;;;;4990672;28;20018;-71
2021/09/04 04:57:30;;;;;;;14.45;10.38;;;18.80;72.20;;;;;;4990415;28;20068;-71
2021/09/04 04:59:56;;;;;;;15.32;10.18;;;18.80;72.20;;;;;;4989885;28;20074;-71
2021/09/04 05:02:21;;;;;;;11.40;9.07;;;18.80;72.30;;;;;;4990653;28;20023;-71
2021/09/04 05:04:47;;;;;;;12.82;9.15;;;18.80;72.40;;;;;;4991556;28;20069;-71
2021/09/04 05:07:13;;;;;;;14.27;10.15;;;18.70;72.30;;;;;;4992210;28;20022;-71
2021/09/04 05:09:38;;;;;;;13.27;9.60;;;18.70;72.50;;;;;;4989809;28;20086;-71
2021/09/04 05:12:04;;;;;;;11.73;9.27;;;18.70;72.70;;;;;;4992355;28;20026;-71
2021/09/04 05:14:29;;;;;;;9.77;8.20;;;18.70;72.40;;;;;;4989956;28;20418;-71
2021/09/04 05:16:55;;;;;;;12.85;9.02;;;18.70;72.50;;;;;;4990760;28;20024;-71
2021/09/04 05:19:21;;;;;;;12.00;9.27;;;18.70;73.40;;;;;;4992812;28;20128;-71
2021/09/04 05:21:47;;;;;;;11.93;9.20;;;18.70;72.60;;;;;;4991348;28;20026;-71
2021/09/04 05:24:12;;;;;;;13.23;9.93;;;18.60;72.50;;;;;;4972015;28;20081;-71
2021/09/04 05:26:38;;;;;;;14.35;10.13;;;18.60;72.70;;;;;;4988607;28;20537;-71
2021/09/04 05:29:03;;;;;;;13.55;9.25;;;18.60;73.00;;;;;;4975696;28;20033;-71
2021/09/04 05:31:29;;;;;;;12.55;9.48;;;18.70;73.00;;;;;;4992313;28;20046;-71
2021/09/04 05:33:55;;;;;;;13.55;10.50;;;18.70;72.70;;;;;;4990046;28;20117;-71
2021/09/04 05:36:20;;;;;;;13.95;10.68;;;18.60;72.70;;;;;;4989048;28;20427;-71
2021/09/04 05:38:46;;;;;;;12.98;9.57;;;18.60;72.80;;;;;;4989091;28;20069;-71
2021/09/04 05:41:12;;;;;;;15.02;10.25;;;18.60;72.80;;;;;;4984455;28;20026;-71
2021/09/04 05:43:37;;;;;;;14.80;10.65;;;18.60;73.10;;;;;;4992199;28;20030;-71
2021/09/04 05:46:03;;;;;;;14.50;10.38;;;18.60;73.30;;;;;;4990743;28;20446;-71
2021/09/04 05:48:29;;;;;;;13.45;10.73;;;18.60;73.20;;;;;;4989423;28;20034;-71
2021/09/04 05:50:54;;;;;;;14.88;10.02;;;18.60;73.40;;;;;;4989523;28;20065;-71
2021/09/04 05:53:20;;;;;;;13.55;10.05;;;18.60;73.30;;;;;;4990695;28;20070;-71
2021/09/04 05:55:46;;;;;;;16.63;10.18;;;18.60;73.50;;;;;;4991985;28;20037;-71
2021/09/04 05:58:12;;;;;;;13.95;9.80;;;18.60;73.70;;;;;;4975297;28;20034;-71
2021/09/04 06:00:37;;;;;;;12.80;9.65;;;18.70;73.70;;;;;;4973217;28;20042;-71
2021/09/04 06:03:03;;;;;;;15.98;10.25;;;18.80;73.40;;;;;;4989527;28;20029;-71
2021/09/04 06:05:29;;;;;;;18.23;11.73;;;18.80;73.20;;;;;;4989763;28;20026;-71
2021/09/04 06:07:55;;;;;;;13.05;9.93;;;18.70;73.00;;;;;;4989694;28;20471;-71
2021/09/04 06:10:21;;;;;;;14.40;10.38;;;18.80;74.40;;;;;;4992205;28;20026;-71
2021/09/04 06:12:46;;;;;;;14.65;10.48;;;18.80;73.50;;;;;;4989052;28;20030;-71
2021/09/04 06:15:12;;;;;;;14.75;10.32;;;18.80;73.50;;;;;;4988892;28;20023;-71
2021/09/04 06:17:38;;;;;;;14.48;10.35;;;18.80;73.30;;;;;;4988900;28;20037;-71
2021/09/04 06:20:06;;;;;;;14.73;11.43;;;18.80;73.60;;;;;;4989385;28;20066;-71
2021/09/04 06:22:32;;;;;;;14.35;10.63;;;18.80;73.60;;;;;;4991490;28;20568;-71
2021/09/04 06:24:58;;;;;;;14.00;9.88;;;18.90;73.90;;;;;;4990192;28;20177;-71
2021/09/04 06:27:23;;;;;;;15.52;10.13;;;18.90;73.70;;;;;;4989311;28;20390;-71
2021/09/04 06:29:49;;;;;;;14.68;10.70;;;19.00;73.80;;;;;;4990857;28;20392;-71
2021/09/04 06:32:15;;;;;;;13.65;9.95;;;19.00;73.80;;;;;;4990729;28;20201;-71
2021/09/04 06:34:41;;;;;;;15.20;10.35;;;19.00;73.70;;;;;;4990584;28;20034;-71
2021/09/04 06:37:07;;;;;;;15.93;10.48;;;19.00;73.70;;;;;;4989944;28;20026;-71
2021/09/04 06:39:32;;;;;;;16.35;11.40;;;19.00;73.70;;;;;;4989032;28;20451;-71
2021/09/04 06:41:58;;;;;;;16.60;11.27;;;19.00;73.70;;;;;;4988872;28;20037;-71
2021/09/04 06:44:24;;;;;;;14.68;10.70;;;19.10;73.70;;;;;;4989122;28;20109;-71
2021/09/04 06:46:50;;;;;;;16.13;10.25;;;19.10;74.20;;;;;;4990343;28;20045;-71
2021/09/04 06:49:15;;;;;;;16.58;10.80;;;19.10;73.90;;;;;;4989858;28;20014;-71
2021/09/04 06:51:41;;;;;;;15.32;10.90;;;19.20;73.80;;;;;;4988585;28;20471;-71
2021/09/04 06:54:07;;;;;;;16.63;11.05;;;19.30;74.30;;;;;;4975277;28;20038;-71
2021/09/04 06:56:32;;;;;;;14.98;10.70;;;19.30;74.00;;;;;;4973707;28;20402;-71
2021/09/04 06:58:58;;;;;;;14.57;10.98;;;19.30;74.00;;;;;;4971455;28;20045;-71
2021/09/04 07:01:24;;;;;;;13.50;10.40;;;19.40;73.70;;;;;;4987017;28;20496;-71
2021/09/04 07:03:49;;;;;;;15.98;11.00;;;19.40;73.80;;;;;;4988477;28;20026;-71
2021/09/04 07:06:15;;;;;;;14.95;10.63;;;19.40;73.60;;;;;;4991687;28;20249;-71
2021/09/04 07:08:40;;;;;;;15.45;10.88;;;19.50;74.00;;;;;;4988612;28;20042;-70
2021/09/04 07:11:06;;;;;;;14.00;11.13;;;19.50;73.70;;;;;;4981052;28;20038;-71
2021/09/04 07:13:32;;;;;;;16.25;10.38;;;19.50;73.60;;;;;;4994566;28;20081;-72
2021/09/04 07:15:57;;;;;;;13.98;10.55;;;19.50;73.80;;;;;;4995084;28;20034;-72
2021/09/04 07:18:24;;;;;;;15.30;11.00;;;19.60;73.70;;;;;;4992010;28;20049;-72
2021/09/04 07:20:50;;;;;;;14.77;11.00;;;19.60;73.70;;;;;;4991679;28;20054;-73
2021/09/04 07:23:16;;;;;;;14.77;10.85;;;19.70;73.70;;;;;;4992296;28;20023;-72
2021/09/04 07:25:41;;;;;;;15.10;11.27;;;19.80;73.60;;;;;;4976924;28;20361;-72
2021/09/04 07:28:07;;;;;;;15.40;10.50;;;19.80;73.40;;;;;;4993371;28;20018;-72
2021/09/04 07:30:36;;;;;;;14.60;10.73;;;19.80;73.40;;;;;;4991940;28;20514;-72
2021/09/04 07:33:02;;;;;;;14.40;11.00;;;19.90;73.30;;;;;;4992100;28;20053;-72
2021/09/04 07:35:28;;;;;;;15.10;11.00;;;19.90;73.20;;;;;;4992233;28;20026;-72
2021/09/04 07:37:54;;;;;;;14.40;10.07;;;19.90;73.50;;;;;;4984550;28;20042;-72
2021/09/04 07:40:20;;;;;;;16.38;11.80;;;20.00;73.40;;;;;;4980609;28;20058;-72
2021/09/04 07:42:45;;;;;;;14.63;11.02;;;20.10;73.30;;;;;;4985246;28;20463;-72
2021/09/04 07:45:11;;;;;;;15.13;10.85;;;20.20;73.20;;;;;;4986225;28;20491;-72
2021/09/04 07:47:37;;;;;;;15.43;11.85;;;20.30;73.30;;;;;;4984586;28;20114;-72
2021/09/04 07:50:04;;;;;;;15.98;10.63;;;20.40;72.70;;;;;;4983739;28;20039;-73
2021/09/04 07:52:30;;;;;;;16.00;11.48;;;20.50;72.70;;;;;;4971000;28;20019;-72
2021/09/04 07:54:55;;;;;;;15.93;11.02;;;20.50;73.40;;;;;;4981637;28;20447;-72
2021/09/04 07:57:21;;;;;;;14.27;10.68;;;20.60;72.20;;;;;;4982081;28;20053;-72
2021/09/04 07:59:47;;;;;;;15.52;11.23;;;20.70;71.90;;;;;;4982520;28;20070;-71
2021/09/04 08:02:12;;;;;;;15.13;10.60;;;20.60;71.50;;;;;;4968756;28;20420;-71
2021/09/04 08:04:38;;;;;;;14.13;10.38;;;20.70;72.20;;;;;;4982631;28;20033;-70
2021/09/04 08:07:04;;;;;;;13.27;10.27;;;20.90;71.80;;;;;;4971283;28;20105;-71
2021/09/04 08:09:29;;;;;;;17.20;11.32;;;20.90;71.20;;;;;;4984384;28;20418;-70
2021/09/04 08:11:55;;;;;;;16.52;11.48;;;20.90;70.90;;;;;;4984350;28;20471;-71
2021/09/04 08:14:21;;;;;;;15.05;11.25;;;20.90;71.10;;;;;;4983514;28;20037;-72
2021/09/04 08:16:46;;;;;;;17.33;11.27;;;21.10;72.10;;;;;;4969063;28;20130;-72
2021/09/04 08:19:12;;;;;;;15.77;10.73;;;21.40;72.20;;;;;;4983936;28;20368;-72
2021/09/04 08:21:37;;;;;;;14.27;10.57;;;21.90;72.00;;;;;;4984632;28;20487;-71
2021/09/04 08:24:03;;;;;;;14.98;10.45;;;22.30;70.40;;;;;;4970241;28;20034;-71
2021/09/04 08:26:29;;;;;;;14.85;11.23;;;22.50;69.50;;;;;;4983555;28;20494;-73
2021/09/04 08:28:58;;;;;;;16.20;11.02;;;22.50;68.40;;;;;;4969337;28;20395;-72
2021/09/04 08:31:23;;;;;;;13.68;10.35;;;22.30;67.60;;;;;;4989331;28;20077;-72
2021/09/04 08:33:49;;;;;;;16.30;11.07;;;22.20;68.10;;;;;;4988025;28;20423;-72
2021/09/04 08:36:15;;;;;;;16.35;11.60;;;22.10;68.60;;;;;;4990312;28;20030;-72
2021/09/04 08:38:40;;;;;;;13.48;10.65;;;22.10;68.80;;;;;;4988214;28;20018;-72
2021/09/04 08:41:06;;;;;;;14.32;10.05;;;22.20;69.00;;;;;;4990090;28;20034;-71
2021/09/04 08:43:33;;;;;;;14.85;10.32;;;22.20;68.80;;;;;;4988325;28;20026;-72
2021/09/04 08:46:00;;;;;;;13.90;10.30;;;22.10;68.80;;;;;;4988978;28;20022;-72
2021/09/04 08:48:26;;;;;;;12.98;10.10;;;22.10;68.60;;;;;;4986775;28;20019;-72
2021/09/04 08:50:52;;;;;;;13.55;10.73;;;22.00;68.70;;;;;;4970532;28;20078;-72
2021/09/04 08:53:22;;;;;;;13.43;10.35;;;21.90;68.90;;;;;;4987063;28;20034;-72
2021/09/04 08:55:48;;;;;;;13.73;9.88;;;22.00;69.00;;;;;;4987884;28;20120;-72
2021/09/04 08:58:14;;;;;;;14.18;10.23;;;21.90;69.10;;;;;;4988499;28;20026;-71
2021/09/04 09:00:41;;;;;;;15.50;10.68;;;22.00;69.40;;;;;;4988290;28;20035;-71
2021/09/04 09:03:24;;;;;;;16.20;10.23;;;22.00;69.40;;;;;;4991236;28;20098;-71
2021/09/04 09:05:49;;;;;;;15.10;10.60;;;22.00;69.30;;;;;;4986416;28;20022;-71
2021/09/04 09:08:17;;;;;;;16.05;10.20;;;22.00;69.30;;;;;;4987001;28;20713;-71
2021/09/04 09:10:44;;;;;;;13.57;10.20;;;22.00;69.40;;;;;;4988677;28;20023;-72
2021/09/04 09:13:16;;;;;;;14.10;10.38;;;22.20;69.50;;;;;;4974549;28;20438;-70
2021/09/04 09:15:42;;;;;;;12.63;10.15;;;22.20;69.60;;;;;;4988272;28;20068;-71
2021/09/04 09:18:13;;;;;;;13.32;10.68;;;22.30;69.40;;;;;;4986673;28;20557;-71
2021/09/04 09:20:46;;;;;;;13.55;10.00;;;22.30;69.10;;;;;;4982478;28;20548;-71
2021/09/04 09:23:20;;;;;;;13.35;9.77;;;22.40;69.20;;;;;;4970257;28;20061;-71
2021/09/04 09:25:47;;;;;;;13.73;10.82;;;22.40;69.10;;;;;;4987313;28;20085;-71
2021/09/04 09:28:14;;;;;;;15.75;10.90;;;22.50;69.00;;;;;;4988447;28;20015;-72
2021/09/04 09:30:41;;;;;;;16.25;10.80;;;22.50;69.00;;;;;;4988617;28;20406;-71
2021/09/04 09:33:08;;;;;;;14.13;11.48;;;22.60;69.10;;;;;;4972719;28;20023;-71
2021/09/04 09:35:36;;;;;;;15.05;10.60;;;22.60;68.50;;;;;;4985633;28;20070;-71
2021/09/04 09:38:04;;;;;;;16.88;10.77;;;22.60;68.70;;;;;;4986244;28;20054;-70
2021/09/04 09:40:31;;;;;;;16.45;11.30;;;22.70;68.60;;;;;;4984270;28;20031;-70
2021/09/04 09:42:56;;;;;;;15.27;11.32;;;22.80;68.40;;;;;;4987532;28;20030;-70
2021/09/04 09:45:41;;;;;;;14.95;11.27;;;22.90;68.70;;;;;;4985879;28;20031;-71
2021/09/04 09:48:06;;;;;;;16.63;10.90;;;23.30;68.60;;;;;;4968618;28;20405;-70
2021/09/04 09:50:34;;;;;;;15.32;11.10;;;23.50;67.30;;;;;;4985037;28;20019;-69
2021/09/04 09:53:01;;;;;;;16.10;12.02;;;23.60;67.30;;;;;;4983451;28;20030;-69
2021/09/04 09:55:28;;;;;;;17.02;12.15;;;23.80;66.70;;;;;;4983735;28;20014;-70
2021/09/04 09:57:57;;;;;;;14.02;11.68;;;24.00;66.80;;;;;;4988601;28;20019;-70
2021/09/04 10:00:28;;;;;;;17.23;12.88;;;24.30;66.80;;;;;;4987768;28;20483;-70
2021/09/04 10:02:59;;;;;;;14.98;11.05;;;25.10;67.90;;;;;;4969304;28;20030;-70
2021/09/04 10:05:30;;;;;;;12.45;10.93;;;26.20;65.60;;;;;;4984705;28;20046;-70
2021/09/04 10:07:57;;;;;;;12.85;10.65;;;27.20;63.70;;;;;;4980767;28;20431;-70
2021/09/04 10:10:29;;;;;;;14.77;10.30;;;27.80;60.30;;;;;;4986261;28;20087;-71
2021/09/04 10:12:55;;;;;;;13.27;10.52;;;28.00;60.00;;;;;;4987202;28;20553;-71
2021/09/04 10:15:25;;;;;;;11.77;10.57;;;28.50;58.80;;;;;;4988034;28;20034;-72
2021/09/04 10:17:53;;;;;;;11.93;9.88;;;29.10;58.50;;;;;;4985253;28;20502;-72
2021/09/04 10:20:25;;;;;;;12.30;10.30;;;29.90;57.20;;;;;;4980913;28;20042;-72
2021/09/04 10:22:54;;;;;;;10.10;9.00;;;30.00;55.00;;;;;;4986216;28;20046;-71
2021/09/04 10:25:20;;;;;;;11.43;9.18;;;29.70;54.30;;;;;;4988419;28;20375;-70
2021/09/04 10:27:48;;;;;;;11.73;9.45;;;30.00;54.80;;;;;;4985902;28;20034;-70
2021/09/04 10:30:26;;;;;;;9.80;8.73;;;30.60;53.60;;;;;;4985257;28;20120;-70
2021/09/04 10:33:04;;;;;;;10.45;8.80;;;31.00;53.60;;;;;;4986864;28;20503;-70
2021/09/04 10:35:40;;;;;;;10.02;8.93;;;31.50;53.90;;;;;;4988014;28;20510;-69
2021/09/04 10:38:17;;;;;;;10.35;9.18;;;31.90;52.50;;;;;;4988045;28;20077;-69
2021/09/04 10:40:44;;;;;;;9.60;8.45;;;32.20;51.60;;;;;;4987855;28;20077;-71
2021/09/04 10:43:10;;;;;;;9.93;8.73;;;32.60;47.90;;;;;;4990736;28;20031;-70
2021/09/04 10:45:38;;;;;;;9.30;8.40;;;32.80;47.90;;;;;;4989288;28;20033;-69
2021/09/04 10:48:13;;;;;;;9.07;8.13;;;33.10;47.40;;;;;;4989887;28;20068;-68
2021/09/04 10:50:39;;;;;;;8.63;7.70;;;33.30;48.40;;;;;;4986392;28;20031;-70
2021/09/04 10:53:07;;;;;;;9.88;8.88;;;33.60;46.30;;;;;;4991002;28;20045;-71
2021/09/04 10:55:42;;;;;;;9.73;8.10;;;34.00;44.50;;;;;;4985874;28;20098;-70
2021/09/04 10:58:21;;;;;;;11.13;8.05;;;34.10;44.60;;;;;;4991698;28;20038;-70
2021/09/04 11:00:48;;;;;;;8.50;7.38;;;34.30;44.10;;;;;;4989150;28;20093;-70
2021/09/04 11:03:19;;;;;;;9.05;7.45;;;34.50;44.20;;;;;;4985422;28;20023;-71
2021/09/04 11:05:52;;;;;;;8.35;7.55;;;34.80;42.20;;;;;;4989409;28;20018;-70
2021/09/04 11:08:24;;;;;;;9.38;8.38;;;34.90;42.30;;;;;;4988765;28;20093;-71
2021/09/04 11:11:10;;;;;;;9.32;8.43;;;35.20;42.70;;;;;;4987029;28;20037;-71
2021/09/04 11:13:38;;;;;;;7.90;7.20;;;35.30;42.20;;;;;;4991754;28;20053;-70
2021/09/04 11:16:32;;;;;;;8.07;7.32;;;35.30;40.70;;;;;;4972381;28;20061;-70
2021/09/04 11:19:07;;;;;;;8.15;7.30;;;35.40;43.30;;;;;;4986250;28;20037;-70
2021/09/04 11:21:48;;;;;;;9.07;7.53;;;35.50;39.80;;;;;;4985333;28;20109;-70
2021/09/04 11:24:18;;;;;;;8.48;7.43;;;35.60;41.00;;;;;;4987956;28;20038;-70
2021/09/04 11:26:53;;;;;;;9.57;7.47;;;35.80;39.20;;;;;;4985329;28;20035;-70
2021/09/04 11:29:19;;;;;;;9.35;6.70;;;35.70;38.80;;;;;;4990587;28;21938;-70
2021/09/04 11:32:01;;;;;;;6.50;5.97;;;35.80;38.50;;;;;;4990162;28;20043;-70
2021/09/04 11:34:42;;;;;;;7.75;5.97;;;36.10;40.50;;;;;;4984819;28;20063;-70
2021/09/04 11:37:18;;;;;;;6.40;5.80;;;36.30;39.80;;;;;;4991003;28;20034;-70
2021/09/04 11:39:45;;;;;;;7.32;5.47;;;36.30;39.00;;;;;;4986123;28;20042;-70
2021/09/04 11:42:20;;;;;;;7.82;5.60;;;36.60;36.80;;;;;;4966737;28;20034;-70
2021/09/04 11:44:53;;;;;;;6.60;5.45;;;36.50;38.30;;;;;;4987281;28;20049;-70
2021/09/04 11:47:20;;;;;;;6.03;5.53;;;36.60;36.90;;;;;;4987160;28;20034;-71
2021/09/04 11:49:51;;;;;;;6.10;5.60;;;36.80;36.60;;;;;;4986118;28;20038;-70
2021/09/04 11:52:38;;;;;;;6.22;5.30;;;37.00;35.90;;;;;;4989480;28;20038;-70
2021/09/04 11:55:19;;;;;;;5.65;5.13;;;37.00;35.90;;;;;;4984278;28;20402;-69
2021/09/04 11:57:47;;;;;;;6.60;6.00;;;37.10;36.50;;;;;;4983777;28;20077;-69
2021/09/04 12:00:15;;;;;;;5.65;4.85;;;37.00;33.40;;;;;;4963173;28;20035;-70
2021/09/04 12:02:52;;;;;;;6.05;5.55;;;36.90;34.70;;;;;;4981390;28;20391;-70
2021/09/04 12:05:23;;;;;;;5.78;5.28;;;37.00;35.80;;;;;;4983247;28;20026;-70
2021/09/04 12:07:51;;;;;;;5.30;4.75;;;37.00;33.40;;;;;;4984822;28;20035;-70
2021/09/04 12:10:25;;;;;;;6.80;5.47;;;37.00;34.00;;;;;;4989118;28;20130;-70
2021/09/04 12:12:54;;;;;;;5.93;4.93;;;37.10;33.30;;;;;;4984816;28;20026;-69
2021/09/04 12:15:20;;;;;;;4.63;4.22;;;37.10;32.90;;;;;;4966614;28;20096;-71
2021/09/04 12:18:05;;;;;;;4.47;4.07;;;37.10;32.20;;;;;;4985923;28;20077;-70
2021/09/04 12:20:35;;;;;;;4.80;4.40;;;37.10;33.10;;;;;;4969478;28;20506;-70
2021/09/04 12:23:30;;;;;;;4.28;3.88;;;37.40;32.90;;;;;;4978284;28;20027;-70
2021/09/04 12:26:07;;;;;;;4.70;4.25;;;37.90;34.40;;;;;;4971383;28;20034;-70
2021/09/04 12:28:33;;;;;;;4.63;4.22;;;38.20;34.20;;;;;;4985549;28;20023;-70
2021/09/04 12:31:10;;;;;;;4.97;4.57;;;38.30;30.30;;;;;;4984473;28;20415;-70
2021/09/04 12:33:51;;;;;;;4.72;4.30;;;38.20;32.20;;;;;;4984201;28;20026;-70